Santa Rosa, Texas
Current Conditions -  °F | °C
As of 8:15 AM on Thursday 29 Jan 2015 (Local Time) from KT65 Reporting Station
Light Rain Light Rain  
Wind Chill: 60°   Ceiling: 100
Heat Index: 60°   Visibility: 0.75mi
Dew Point: 58°   Wind: 5mph
Humidity: 94%   Direction: 150°SSE
Pressure: 30.18"   Gusts: NA
Location:  26.26°N, 97.82°W
Report Text: KT65 291415Z AUTO 15004KT 3/4SM -RA OVC001 15/15 A3018 RMK AO2 T01540145
Loading
Personal Weather Stations






























Interactive Weather Map New forecast layout! Learn more

10-Day Weather Forecast

Advertisements
Track Severe Weather on mobile